sensor_id;sensor_type;location;lat;lon;timestamp;temperature;humidity
21459;DHT22;10891;49.350;19.386;2022-12-18T00:01:58;-8.20;1.00
21459;DHT22;10891;49.350;19.386;2022-12-18T00:04:26;-8.30;1.00
21459;DHT22;10891;49.350;19.386;2022-12-18T00:06:53;-8.30;1.00
21459;DHT22;10891;49.350;19.386;2022-12-18T00:09:20;-8.40;1.00
21459;DHT22;10891;49.350;19.386;2022-12-18T00:11:47;-8.50;1.00
21459;DHT22;10891;49.350;19.386;2022-12-18T00:14:14;-8.60;1.00
21459;DHT22;10891;49.350;19.386;2022-12-18T00:16:45;-8.60;1.00
21459;DHT22;10891;49.350;19.386;2022-12-18T00:19:12;-8.70;1.00
21459;DHT22;10891;49.350;19.386;2022-12-18T00:21:41;-8.90;1.00
21459;DHT22;10891;49.350;19.386;2022-12-18T00:24:09;-9.00;1.00
21459;DHT22;10891;49.350;19.386;2022-12-18T00:26:37;-9.10;1.00
21459;DHT22;10891;49.350;19.386;2022-12-18T00:29:06;-9.10;1.00
21459;DHT22;10891;49.350;19.386;2022-12-18T00:31:34;-9.20;1.00
21459;DHT22;10891;49.350;19.386;2022-12-18T00:34:02;-9.20;1.00
21459;DHT22;10891;49.350;19.386;2022-12-18T00:36:32;-9.30;1.00
21459;DHT22;10891;49.350;19.386;2022-12-18T00:39:01;-9.40;1.00
21459;DHT22;10891;49.350;19.386;2022-12-18T00:41:29;-9.50;1.00
21459;DHT22;10891;49.350;19.386;2022-12-18T00:44:15;-9.60;1.00
21459;DHT22;10891;49.350;19.386;2022-12-18T00:46:43;-9.60;1.00
21459;DHT22;10891;49.350;19.386;2022-12-18T00:49:16;-9.80;1.00
21459;DHT22;10891;49.350;19.386;2022-12-18T00:51:43;-9.80;1.00
21459;DHT22;10891;49.350;19.386;2022-12-18T00:54:10;-9.90;1.00
21459;DHT22;10891;49.350;19.386;2022-12-18T00:56:37;-10.00;1.00
21459;DHT22;10891;49.350;19.386;2022-12-18T00:59:04;-10.10;1.00
21459;DHT22;10891;49.350;19.386;2022-12-18T01:01:32;-10.20;1.00
21459;DHT22;10891;49.350;19.386;2022-12-18T01:04:00;-10.20;1.00
21459;DHT22;10891;49.350;19.386;2022-12-18T01:06:28;-10.30;1.00
21459;DHT22;10891;49.350;19.386;2022-12-18T01:08:55;-10.40;1.00
21459;DHT22;10891;49.350;19.386;2022-12-18T01:11:23;-10.60;1.00
21459;DHT22;10891;49.350;19.386;2022-12-18T01:13:51;-10.60;1.00
21459;DHT22;10891;49.350;19.386;2022-12-18T01:16:18;-10.60;1.00
21459;DHT22;10891;49.350;19.386;2022-12-18T01:18:45;-10.70;1.00
21459;DHT22;10891;49.350;19.386;2022-12-18T01:21:14;-10.70;1.00
21459;DHT22;10891;49.350;19.386;2022-12-18T01:23:43;-10.90;1.00
21459;DHT22;10891;49.350;19.386;2022-12-18T01:26:11;-11.00;1.00
21459;DHT22;10891;49.350;19.386;2022-12-18T01:28:39;-11.10;1.00
21459;DHT22;10891;49.350;19.386;2022-12-18T01:31:14;-11.20;1.00
21459;DHT22;10891;49.350;19.386;2022-12-18T01:33:42;-11.30;1.00
21459;DHT22;10891;49.350;19.386;2022-12-18T01:36:15;-11.20;1.00
21459;DHT22;10891;49.350;19.386;2022-12-18T01:38:43;-11.20;1.00
21459;DHT22;10891;49.350;19.386;2022-12-18T01:41:11;-11.20;1.00
21459;DHT22;10891;49.350;19.386;2022-12-18T01:43:48;-11.30;1.00
21459;DHT22;10891;49.350;19.386;2022-12-18T01:46:15;-11.60;1.00
21459;DHT22;10891;49.350;19.386;2022-12-18T01:48:43;-11.70;1.00
21459;DHT22;10891;49.350;19.386;2022-12-18T01:51:11;-11.90;1.00
21459;DHT22;10891;49.350;19.386;2022-12-18T01:53:40;-12.00;1.00
21459;DHT22;10891;49.350;19.386;2022-12-18T01:56:12;-12.00;1.00
21459;DHT22;10891;49.350;19.386;2022-12-18T01:58:44;-11.90;1.00
21459;DHT22;10891;49.350;19.386;2022-12-18T02:01:12;-11.90;1.00
21459;DHT22;10891;49.350;19.386;2022-12-18T02:03:41;-12.00;1.00
21459;DHT22;10891;49.350;19.386;2022-12-18T02:06:13;-12.00;1.00
21459;DHT22;10891;49.350;19.386;2022-12-18T02:08:48;-12.00;1.00
21459;DHT22;10891;49.350;19.386;2022-12-18T02:11:33;-12.10;1.00
21459;DHT22;10891;49.350;19.386;2022-12-18T02:14:10;-12.10;1.00
21459;DHT22;10891;49.350;19.386;2022-12-18T02:16:45;-12.00;1.00
21459;DHT22;10891;49.350;19.386;2022-12-18T02:19:29;-12.10;1.00
21459;DHT22;10891;49.350;19.386;2022-12-18T02:22:11;-12.10;1.00
21459;DHT22;10891;49.350;19.386;2022-12-18T02:24:47;-12.00;1.00
21459;DHT22;10891;49.350;19.386;2022-12-18T02:27:19;-12.00;1.00
21459;DHT22;10891;49.350;19.386;2022-12-18T02:29:50;-12.40;1.00
21459;DHT22;10891;49.350;19.386;2022-12-18T02:32:22;-12.60;1.00
21459;DHT22;10891;49.350;19.386;2022-12-18T02:34:51;-12.80;1.00
21459;DHT22;10891;49.350;19.386;2022-12-18T02:37:20;-12.70;1.00
21459;DHT22;10891;49.350;19.386;2022-12-18T02:39:49;-12.60;1.00
21459;DHT22;10891;49.350;19.386;2022-12-18T02:42:19;-12.60;1.00
21459;DHT22;10891;49.350;19.386;2022-12-18T02:44:47;-12.50;1.00
21459;DHT22;10891;49.350;19.386;2022-12-18T02:47:17;-12.50;1.00
21459;DHT22;10891;49.350;19.386;2022-12-18T02:49:52;-12.40;1.00
21459;DHT22;10891;49.350;19.386;2022-12-18T02:52:31;-12.50;1.00
21459;DHT22;10891;49.350;19.386;2022-12-18T02:55:08;-12.70;1.00
21459;DHT22;10891;49.350;19.386;2022-12-18T02:57:42;-12.70;1.00
21459;DHT22;10891;49.350;19.386;2022-12-18T03:00:15;-12.70;1.00
21459;DHT22;10891;49.350;19.386;2022-12-18T03:02:46;-12.70;1.00
21459;DHT22;10891;49.350;19.386;2022-12-18T03:05:17;-12.80;1.00
21459;DHT22;10891;49.350;19.386;2022-12-18T03:07:50;-12.80;1.00
21459;DHT22;10891;49.350;19.386;2022-12-18T03:10:23;-12.90;1.00
21459;DHT22;10891;49.350;19.386;2022-12-18T03:12:58;-12.90;1.00
21459;DHT22;10891;49.350;19.386;2022-12-18T03:15:29;-13.00;1.00
21459;DHT22;10891;49.350;19.386;2022-12-18T03:18:03;-13.00;1.00
21459;DHT22;10891;49.350;19.386;2022-12-18T03:20:34;-13.00;1.00
21459;DHT22;10891;49.350;19.386;2022-12-18T03:23:04;-13.00;1.00
21459;DHT22;10891;49.350;19.386;2022-12-18T03:25:34;-12.90;1.00
21459;DHT22;10891;49.350;19.386;2022-12-18T03:28:05;-12.70;1.00
21459;DHT22;10891;49.350;19.386;2022-12-18T03:30:37;-12.70;1.00
21459;DHT22;10891;49.350;19.386;2022-12-18T03:33:08;-12.70;1.00
21459;DHT22;10891;49.350;19.386;2022-12-18T03:35:40;-12.70;1.00
21459;DHT22;10891;49.350;19.386;2022-12-18T03:38:08;-12.70;1.00
21459;DHT22;10891;49.350;19.386;2022-12-18T03:40:43;-12.80;1.00
21459;DHT22;10891;49.350;19.386;2022-12-18T03:43:19;-12.70;1.00
21459;DHT22;10891;49.350;19.386;2022-12-18T03:45:52;-12.60;1.00
21459;DHT22;10891;49.350;19.386;2022-12-18T03:48:28;-12.40;1.00
21459;DHT22;10891;49.350;19.386;2022-12-18T03:50:57;-12.20;1.00
21459;DHT22;10891;49.350;19.386;2022-12-18T03:53:32;-12.00;1.00
21459;DHT22;10891;49.350;19.386;2022-12-18T03:56:01;-11.90;1.00
21459;DHT22;10891;49.350;19.386;2022-12-18T03:58:31;-11.80;1.00
21459;DHT22;10891;49.350;19.386;2022-12-18T04:01:01;-11.90;1.00
21459;DHT22;10891;49.350;19.386;2022-12-18T04:03:29;-12.10;1.00
21459;DHT22;10891;49.350;19.386;2022-12-18T04:05:59;-12.20;1.00
21459;DHT22;10891;49.350;19.386;2022-12-18T04:08:26;-12.50;1.00
21459;DHT22;10891;49.350;19.386;2022-12-18T04:10:54;-12.50;1.00
21459;DHT22;10891;49.350;19.386;2022-12-18T04:13:24;-12.50;1.00
21459;DHT22;10891;49.350;19.386;2022-12-18T04:15:53;-12.40;1.00
21459;DHT22;10891;49.350;19.386;2022-12-18T04:18:19;-12.20;1.00
21459;DHT22;10891;49.350;19.386;2022-12-18T04:20:46;-12.20;1.00
21459;DHT22;10891;49.350;19.386;2022-12-18T04:23:13;-12.10;1.00
21459;DHT22;10891;49.350;19.386;2022-12-18T04:25:40;-11.90;1.00
21459;DHT22;10891;49.350;19.386;2022-12-18T04:28:07;-11.90;1.00
21459;DHT22;10891;49.350;19.386;2022-12-18T04:30:34;-11.80;1.00
21459;DHT22;10891;49.350;19.386;2022-12-18T04:33:02;-12.00;1.00
21459;DHT22;10891;49.350;19.386;2022-12-18T04:35:29;-12.40;1.00
21459;DHT22;10891;49.350;19.386;2022-12-18T04:37:56;-12.50;1.00
21459;DHT22;10891;49.350;19.386;2022-12-18T04:40:23;-12.40;1.00
21459;DHT22;10891;49.350;19.386;2022-12-18T04:42:50;-12.30;1.00
21459;DHT22;10891;49.350;19.386;2022-12-18T04:45:16;-12.20;1.00
21459;DHT22;10891;49.350;19.386;2022-12-18T04:47:43;-12.20;1.00
21459;DHT22;10891;49.350;19.386;2022-12-18T04:50:12;-12.20;1.00
21459;DHT22;10891;49.350;19.386;2022-12-18T04:52:38;-12.20;1.00
21459;DHT22;10891;49.350;19.386;2022-12-18T04:55:06;-12.20;1.00
21459;DHT22;10891;49.350;19.386;2022-12-18T04:57:33;-12.30;1.00
21459;DHT22;10891;49.350;19.386;2022-12-18T04:59:59;-12.50;1.00
21459;DHT22;10891;49.350;19.386;2022-12-18T05:02:26;-12.60;1.00
21459;DHT22;10891;49.350;19.386;2022-12-18T05:04:53;-12.80;1.00
21459;DHT22;10891;49.350;19.386;2022-12-18T05:07:21;-12.80;1.00
21459;DHT22;10891;49.350;19.386;2022-12-18T05:09:48;-12.70;1.00
21459;DHT22;10891;49.350;19.386;2022-12-18T05:12:15;-12.60;1.00
21459;DHT22;10891;49.350;19.386;2022-12-18T05:14:42;-12.40;1.00
21459;DHT22;10891;49.350;19.386;2022-12-18T05:17:09;-12.30;1.00
21459;DHT22;10891;49.350;19.386;2022-12-18T05:19:36;-12.20;1.00
21459;DHT22;10891;49.350;19.386;2022-12-18T05:22:03;-12.20;1.00
21459;DHT22;10891;49.350;19.386;2022-12-18T05:24:38;-12.50;1.00
21459;DHT22;10891;49.350;19.386;2022-12-18T05:27:05;-12.70;1.00
21459;DHT22;10891;49.350;19.386;2022-12-18T05:29:32;-12.70;1.00
21459;DHT22;10891;49.350;19.386;2022-12-18T05:31:59;-12.80;1.00
21459;DHT22;10891;49.350;19.386;2022-12-18T05:34:26;-12.80;1.00
21459;DHT22;10891;49.350;19.386;2022-12-18T05:36:53;-12.90;1.00
21459;DHT22;10891;49.350;19.386;2022-12-18T05:39:20;-13.00;1.00
21459;DHT22;10891;49.350;19.386;2022-12-18T05:41:48;-13.10;1.00
21459;DHT22;10891;49.350;19.386;2022-12-18T05:44:15;-13.10;1.00
21459;DHT22;10891;49.350;19.386;2022-12-18T05:46:42;-13.00;1.00
21459;DHT22;10891;49.350;19.386;2022-12-18T05:49:09;-12.90;1.00
21459;DHT22;10891;49.350;19.386;2022-12-18T05:51:36;-12.90;1.00
21459;DHT22;10891;49.350;19.386;2022-12-18T05:54:03;-12.80;1.00
21459;DHT22;10891;49.350;19.386;2022-12-18T05:56:29;-12.80;1.00
21459;DHT22;10891;49.350;19.386;2022-12-18T05:58:58;-12.70;1.00
21459;DHT22;10891;49.350;19.386;2022-12-18T06:01:26;-12.60;1.00
21459;DHT22;10891;49.350;19.386;2022-12-18T06:03:53;-12.60;1.00
21459;DHT22;10891;49.350;19.386;2022-12-18T06:06:21;-12.60;1.00
21459;DHT22;10891;49.350;19.386;2022-12-18T06:08:49;-12.50;1.00
21459;DHT22;10891;49.350;19.386;2022-12-18T06:11:19;-12.40;1.00
21459;DHT22;10891;49.350;19.386;2022-12-18T06:13:46;-12.40;1.00
21459;DHT22;10891;49.350;19.386;2022-12-18T06:16:14;-12.30;1.00
21459;DHT22;10891;49.350;19.386;2022-12-18T06:18:41;-12.20;1.00
21459;DHT22;10891;49.350;19.386;2022-12-18T06:21:08;-12.20;1.00
21459;DHT22;10891;49.350;19.386;2022-12-18T06:23:35;-12.00;1.00
21459;DHT22;10891;49.350;19.386;2022-12-18T06:26:04;-11.90;1.00
21459;DHT22;10891;49.350;19.386;2022-12-18T06:28:32;-11.90;1.00
21459;DHT22;10891;49.350;19.386;2022-12-18T06:30:59;-12.00;1.00
21459;DHT22;10891;49.350;19.386;2022-12-18T06:33:28;-12.20;1.00
21459;DHT22;10891;49.350;19.386;2022-12-18T06:35:59;-12.20;1.00
21459;DHT22;10891;49.350;19.386;2022-12-18T06:38:26;-12.20;1.00
21459;DHT22;10891;49.350;19.386;2022-12-18T06:40:53;-12.20;1.00
21459;DHT22;10891;49.350;19.386;2022-12-18T06:43:20;-11.90;1.00
21459;DHT22;10891;49.350;19.386;2022-12-18T06:45:47;-11.90;1.00
21459;DHT22;10891;49.350;19.386;2022-12-18T06:48:18;-11.90;1.00
21459;DHT22;10891;49.350;19.386;2022-12-18T06:50:46;-11.70;1.00
21459;DHT22;10891;49.350;19.386;2022-12-18T06:53:14;-11.60;1.00
21459;DHT22;10891;49.350;19.386;2022-12-18T06:55:41;-11.50;1.00
21459;DHT22;10891;49.350;19.386;2022-12-18T06:58:08;-11.40;1.00
21459;DHT22;10891;49.350;19.386;2022-12-18T07:00:35;-11.20;1.00
21459;DHT22;10891;49.350;19.386;2022-12-18T07:03:02;-11.10;1.00
21459;DHT22;10891;49.350;19.386;2022-12-18T07:05:29;-11.00;1.00
21459;DHT22;10891;49.350;19.386;2022-12-18T07:07:59;-10.90;1.00
21459;DHT22;10891;49.350;19.386;2022-12-18T07:10:26;-10.80;1.00
21459;DHT22;10891;49.350;19.386;2022-12-18T07:12:53;-10.80;1.00
21459;DHT22;10891;49.350;19.386;2022-12-18T07:15:19;-10.90;1.00
21459;DHT22;10891;49.350;19.386;2022-12-18T07:17:46;-10.80;1.00
21459;DHT22;10891;49.350;19.386;2022-12-18T07:20:13;-10.70;1.00
21459;DHT22;10891;49.350;19.386;2022-12-18T07:22:40;-10.50;1.00
21459;DHT22;10891;49.350;19.386;2022-12-18T07:25:09;-10.40;1.00
21459;DHT22;10891;49.350;19.386;2022-12-18T07:27:37;-10.60;1.00
21459;DHT22;10891;49.350;19.386;2022-12-18T07:30:05;-10.50;1.00
21459;DHT22;10891;49.350;19.386;2022-12-18T07:32:32;-10.50;1.00
21459;DHT22;10891;49.350;19.386;2022-12-18T07:34:58;-10.50;1.00
21459;DHT22;10891;49.350;19.386;2022-12-18T07:37:25;-10.50;1.00
21459;DHT22;10891;49.350;19.386;2022-12-18T07:39:52;-10.70;1.00
21459;DHT22;10891;49.350;19.386;2022-12-18T07:42:20;-10.60;1.00
21459;DHT22;10891;49.350;19.386;2022-12-18T07:45:00;-10.40;1.00
21459;DHT22;10891;49.350;19.386;2022-12-18T07:47:27;-10.30;1.00
21459;DHT22;10891;49.350;19.386;2022-12-18T07:49:55;-10.10;1.00
21459;DHT22;10891;49.350;19.386;2022-12-18T07:52:22;-9.80;1.00
21459;DHT22;10891;49.350;19.386;2022-12-18T07:54:48;-9.60;1.00
21459;DHT22;10891;49.350;19.386;2022-12-18T07:57:15;-9.40;1.00
21459;DHT22;10891;49.350;19.386;2022-12-18T07:59:44;-9.30;1.00
21459;DHT22;10891;49.350;19.386;2022-12-18T08:02:10;-9.40;1.00
21459;DHT22;10891;49.350;19.386;2022-12-18T08:04:37;-9.40;1.00
21459;DHT22;10891;49.350;19.386;2022-12-18T08:07:04;-9.50;1.00
21459;DHT22;10891;49.350;19.386;2022-12-18T08:09:31;-9.40;1.00
21459;DHT22;10891;49.350;19.386;2022-12-18T08:11:58;-9.40;1.00
21459;DHT22;10891;49.350;19.386;2022-12-18T08:14:24;-9.20;1.00
21459;DHT22;10891;49.350;19.386;2022-12-18T08:16:53;-8.90;1.00
21459;DHT22;10891;49.350;19.386;2022-12-18T08:19:20;-8.60;1.00
21459;DHT22;10891;49.350;19.386;2022-12-18T08:21:47;-8.30;1.00
21459;DHT22;10891;49.350;19.386;2022-12-18T08:24:13;-8.00;1.00
21459;DHT22;10891;49.350;19.386;2022-12-18T08:26:40;-8.10;1.00
21459;DHT22;10891;49.350;19.386;2022-12-18T08:29:08;-7.80;1.00
21459;DHT22;10891;49.350;19.386;2022-12-18T08:31:35;-7.60;1.00
21459;DHT22;10891;49.350;19.386;2022-12-18T08:34:03;-7.40;1.00
21459;DHT22;10891;49.350;19.386;2022-12-18T08:36:30;-7.30;1.00
21459;DHT22;10891;49.350;19.386;2022-12-18T08:38:58;-7.10;1.00
21459;DHT22;10891;49.350;19.386;2022-12-18T08:41:27;-6.90;1.00
21459;DHT22;10891;49.350;19.386;2022-12-18T08:43:54;-7.30;1.00
21459;DHT22;10891;49.350;19.386;2022-12-18T08:46:50;-7.30;1.00
21459;DHT22;10891;49.350;19.386;2022-12-18T08:49:19;-7.50;1.00
21459;DHT22;10891;49.350;19.386;2022-12-18T08:51:46;-7.60;1.00
21459;DHT22;10891;49.350;19.386;2022-12-18T08:54:13;-7.50;1.00
21459;DHT22;10891;49.350;19.386;2022-12-18T08:56:40;-7.40;1.00
21459;DHT22;10891;49.350;19.386;2022-12-18T08:59:08;-7.20;1.00
21459;DHT22;10891;49.350;19.386;2022-12-18T09:01:35;-7.10;1.00
21459;DHT22;10891;49.350;19.386;2022-12-18T09:04:02;-7.00;1.00
21459;DHT22;10891;49.350;19.386;2022-12-18T09:06:31;-6.80;1.00
21459;DHT22;10891;49.350;19.386;2022-12-18T09:08:58;-6.70;1.00
21459;DHT22;10891;49.350;19.386;2022-12-18T09:11:27;-6.50;1.00
21459;DHT22;10891;49.350;19.386;2022-12-18T09:13:55;-6.50;1.00
21459;DHT22;10891;49.350;19.386;2022-12-18T09:16:23;-6.70;1.00
21459;DHT22;10891;49.350;19.386;2022-12-18T09:18:51;-6.50;1.00
21459;DHT22;10891;49.350;19.386;2022-12-18T09:21:20;-6.50;1.00
21459;DHT22;10891;49.350;19.386;2022-12-18T09:23:50;-6.30;1.00
21459;DHT22;10891;49.350;19.386;2022-12-18T09:26:18;-6.20;1.00
21459;DHT22;10891;49.350;19.386;2022-12-18T09:28:45;-6.20;1.00
21459;DHT22;10891;49.350;19.386;2022-12-18T09:31:12;-6.00;1.00
21459;DHT22;10891;49.350;19.386;2022-12-18T09:33:40;-5.80;1.00
21459;DHT22;10891;49.350;19.386;2022-12-18T09:36:09;-5.50;1.00
21459;DHT22;10891;49.350;19.386;2022-12-18T09:38:36;-5.60;1.00
21459;DHT22;10891;49.350;19.386;2022-12-18T09:43:51;-5.30;1.00
21459;DHT22;10891;49.350;19.386;2022-12-18T09:46:23;-5.80;1.00
21459;DHT22;10891;49.350;19.386;2022-12-18T09:48:54;-6.20;1.00
21459;DHT22;10891;49.350;19.386;2022-12-18T09:51:27;-6.40;1.00
21459;DHT22;10891;49.350;19.386;2022-12-18T09:53:58;-6.50;1.00
21459;DHT22;10891;49.350;19.386;2022-12-18T09:56:29;-6.70;1.00
21459;DHT22;10891;49.350;19.386;2022-12-18T09:59:00;-6.70;1.00
21459;DHT22;10891;49.350;19.386;2022-12-18T10:01:29;-6.40;1.00
21459;DHT22;10891;49.350;19.386;2022-12-18T10:03:57;-6.40;1.00
21459;DHT22;10891;49.350;19.386;2022-12-18T10:06:28;-6.40;1.00
21459;DHT22;10891;49.350;19.386;2022-12-18T10:09:04;-6.20;1.00
21459;DHT22;10891;49.350;19.386;2022-12-18T10:11:40;-6.30;1.00
21459;DHT22;10891;49.350;19.386;2022-12-18T10:14:15;-6.00;1.00
21459;DHT22;10891;49.350;19.386;2022-12-18T10:16:53;-5.90;1.00
21459;DHT22;10891;49.350;19.386;2022-12-18T10:19:38;-5.80;1.00
21459;DHT22;10891;49.350;19.386;2022-12-18T10:22:25;-6.20;1.00
21459;DHT22;10891;49.350;19.386;2022-12-18T10:24:58;-5.70;1.00
21459;DHT22;10891;49.350;19.386;2022-12-18T10:27:30;-5.50;1.00
21459;DHT22;10891;49.350;19.386;2022-12-18T10:29:58;-5.20;1.00
21459;DHT22;10891;49.350;19.386;2022-12-18T10:32:27;-5.20;1.00
21459;DHT22;10891;49.350;19.386;2022-12-18T10:34:57;-4.90;1.00
21459;DHT22;10891;49.350;19.386;2022-12-18T10:37:26;-4.90;1.00
21459;DHT22;10891;49.350;19.386;2022-12-18T10:40:10;-4.90;1.00
21459;DHT22;10891;49.350;19.386;2022-12-18T10:42:40;-5.00;1.00
21459;DHT22;10891;49.350;19.386;2022-12-18T10:45:11;-4.90;1.00
21459;DHT22;10891;49.350;19.386;2022-12-18T10:47:43;-4.80;1.00
21459;DHT22;10891;49.350;19.386;2022-12-18T10:50:26;-4.90;1.00
21459;DHT22;10891;49.350;19.386;2022-12-18T10:52:57;-4.90;1.00
21459;DHT22;10891;49.350;19.386;2022-12-18T10:55:30;-4.90;1.00
21459;DHT22;10891;49.350;19.386;2022-12-18T10:58:19;-4.90;1.00
21459;DHT22;10891;49.350;19.386;2022-12-18T11:01:03;-5.00;1.00
21459;DHT22;10891;49.350;19.386;2022-12-18T11:03:33;-5.00;1.00
21459;DHT22;10891;49.350;19.386;2022-12-18T11:06:04;-4.80;1.00
21459;DHT22;10891;49.350;19.386;2022-12-18T11:08:32;-4.60;1.00
21459;DHT22;10891;49.350;19.386;2022-12-18T11:11:00;-4.60;1.00
21459;DHT22;10891;49.350;19.386;2022-12-18T11:13:30;-4.90;1.00
21459;DHT22;10891;49.350;19.386;2022-12-18T11:15:58;-4.90;1.00
21459;DHT22;10891;49.350;19.386;2022-12-18T11:18:27;-4.70;1.00
21459;DHT22;10891;49.350;19.386;2022-12-18T11:20:57;-4.70;1.00
21459;DHT22;10891;49.350;19.386;2022-12-18T11:23:27;-4.90;1.00
21459;DHT22;10891;49.350;19.386;2022-12-18T11:25:57;-4.90;1.00
21459;DHT22;10891;49.350;19.386;2022-12-18T11:28:36;-4.80;1.00
21459;DHT22;10891;49.350;19.386;2022-12-18T11:31:27;-4.80;1.00
21459;DHT22;10891;49.350;19.386;2022-12-18T11:34:01;-5.10;1.00
21459;DHT22;10891;49.350;19.386;2022-12-18T11:36:33;-5.40;1.00
21459;DHT22;10891;49.350;19.386;2022-12-18T11:39:09;-5.40;1.00
21459;DHT22;10891;49.350;19.386;2022-12-18T11:41:43;-5.60;1.00
21459;DHT22;10891;49.350;19.386;2022-12-18T11:44:38;-5.70;1.00
21459;DHT22;10891;49.350;19.386;2022-12-18T11:47:11;-5.80;1.00
21459;DHT22;10891;49.350;19.386;2022-12-18T11:49:41;-5.50;1.00
21459;DHT22;10891;49.350;19.386;2022-12-18T11:52:15;-5.40;1.00
21459;DHT22;10891;49.350;19.386;2022-12-18T11:54:44;-5.50;1.00
21459;DHT22;10891;49.350;19.386;2022-12-18T11:57:22;-5.40;1.00
21459;DHT22;10891;49.350;19.386;2022-12-18T11:59:59;-5.40;1.00
21459;DHT22;10891;49.350;19.386;2022-12-18T12:02:41;-5.60;1.00
21459;DHT22;10891;49.350;19.386;2022-12-18T12:05:25;-6.30;1.00
21459;DHT22;10891;49.350;19.386;2022-12-18T12:07:58;-6.20;1.00
21459;DHT22;10891;49.350;19.386;2022-12-18T12:10:48;-6.20;1.00
21459;DHT22;10891;49.350;19.386;2022-12-18T12:13:27;-6.40;1.00
21459;DHT22;10891;49.350;19.386;2022-12-18T12:16:09;-6.00;1.00
21459;DHT22;10891;49.350;19.386;2022-12-18T12:18:52;-6.10;1.00
21459;DHT22;10891;49.350;19.386;2022-12-18T12:21:28;-6.10;1.00
21459;DHT22;10891;49.350;19.386;2022-12-18T12:24:00;-6.20;1.00
21459;DHT22;10891;49.350;19.386;2022-12-18T12:26:35;-6.50;1.00
21459;DHT22;10891;49.350;19.386;2022-12-18T12:29:23;-6.60;1.00
21459;DHT22;10891;49.350;19.386;2022-12-18T12:32:04;-6.90;1.00
21459;DHT22;10891;49.350;19.386;2022-12-18T12:34:38;-7.00;1.00
21459;DHT22;10891;49.350;19.386;2022-12-18T12:37:22;-6.80;1.00
21459;DHT22;10891;49.350;19.386;2022-12-18T12:39:54;-6.80;1.00
21459;DHT22;10891;49.350;19.386;2022-12-18T12:42:29;-6.80;1.00
21459;DHT22;10891;49.350;19.386;2022-12-18T12:45:28;-6.80;1.00
21459;DHT22;10891;49.350;19.386;2022-12-18T12:48:04;-6.80;1.00
21459;DHT22;10891;49.350;19.386;2022-12-18T12:50:34;-6.90;1.00
21459;DHT22;10891;49.350;19.386;2022-12-18T12:53:06;-6.90;1.00
21459;DHT22;10891;49.350;19.386;2022-12-18T12:55:35;-7.00;1.00
21459;DHT22;10891;49.350;19.386;2022-12-18T12:58:06;-7.20;1.00
21459;DHT22;10891;49.350;19.386;2022-12-18T13:00:43;-7.30;1.00
21459;DHT22;10891;49.350;19.386;2022-12-18T13:03:18;-7.30;1.00
21459;DHT22;10891;49.350;19.386;2022-12-18T13:05:53;-7.20;1.00
21459;DHT22;10891;49.350;19.386;2022-12-18T13:08:24;-7.10;1.00
21459;DHT22;10891;49.350;19.386;2022-12-18T13:10:52;-7.00;1.00
21459;DHT22;10891;49.350;19.386;2022-12-18T13:13:50;-7.10;1.00
21459;DHT22;10891;49.350;19.386;2022-12-18T13:16:19;-7.10;1.00
21459;DHT22;10891;49.350;19.386;2022-12-18T13:18:51;-7.20;1.00
21459;DHT22;10891;49.350;19.386;2022-12-18T13:21:23;-7.30;1.00
21459;DHT22;10891;49.350;19.386;2022-12-18T13:23:53;-7.30;1.00
21459;DHT22;10891;49.350;19.386;2022-12-18T13:26:33;-7.40;1.00
21459;DHT22;10891;49.350;19.386;2022-12-18T13:29:01;-7.50;1.00
21459;DHT22;10891;49.350;19.386;2022-12-18T13:31:57;-7.70;1.00
21459;DHT22;10891;49.350;19.386;2022-12-18T13:34:28;-7.90;1.00
21459;DHT22;10891;49.350;19.386;2022-12-18T13:37:33;-7.90;1.00
21459;DHT22;10891;49.350;19.386;2022-12-18T13:39:45;-8.00;1.00
21459;DHT22;10891;49.350;19.386;2022-12-18T13:42:39;-8.10;1.00
21459;DHT22;10891;49.350;19.386;2022-12-18T13:45:42;-8.10;1.00
21459;DHT22;10891;49.350;19.386;2022-12-18T13:48:22;-8.00;1.00
21459;DHT22;10891;49.350;19.386;2022-12-18T13:50:57;-8.10;1.00
21459;DHT22;10891;49.350;19.386;2022-12-18T13:53:29;-8.20;1.00
21459;DHT22;10891;49.350;19.386;2022-12-18T13:55:57;-8.30;1.00
21459;DHT22;10891;49.350;19.386;2022-12-18T13:58:24;-8.60;1.00
21459;DHT22;10891;49.350;19.386;2022-12-18T14:00:51;-8.70;1.00
21459;DHT22;10891;49.350;19.386;2022-12-18T14:03:21;-8.80;1.00
21459;DHT22;10891;49.350;19.386;2022-12-18T14:05:56;-9.00;1.00
21459;DHT22;10891;49.350;19.386;2022-12-18T14:08:23;-9.30;1.00
21459;DHT22;10891;49.350;19.386;2022-12-18T14:10:52;-9.40;1.00
21459;DHT22;10891;49.350;19.386;2022-12-18T14:13:23;-9.40;1.00
21459;DHT22;10891;49.350;19.386;2022-12-18T14:15:51;-9.50;1.00
21459;DHT22;10891;49.350;19.386;2022-12-18T14:18:21;-9.80;1.00
21459;DHT22;10891;49.350;19.386;2022-12-18T14:20:50;-9.90;1.00
21459;DHT22;10891;49.350;19.386;2022-12-18T14:23:33;-10.00;1.00
21459;DHT22;10891;49.350;19.386;2022-12-18T14:26:03;-10.20;1.00
21459;DHT22;10891;49.350;19.386;2022-12-18T14:28:30;-10.40;1.00
21459;DHT22;10891;49.350;19.386;2022-12-18T14:30:57;-10.60;1.00
21459;DHT22;10891;49.350;19.386;2022-12-18T14:33:25;-10.80;1.00
21459;DHT22;10891;49.350;19.386;2022-12-18T14:35:56;-10.90;1.00
21459;DHT22;10891;49.350;19.386;2022-12-18T14:38:29;-11.00;1.00
21459;DHT22;10891;49.350;19.386;2022-12-18T14:41:02;-10.90;1.00
21459;DHT22;10891;49.350;19.386;2022-12-18T14:43:33;-10.70;1.00
21459;DHT22;10891;49.350;19.386;2022-12-18T14:46:01;-10.60;1.00
21459;DHT22;10891;49.350;19.386;2022-12-18T14:48:36;-10.60;1.00
21459;DHT22;10891;49.350;19.386;2022-12-18T14:51:06;-10.70;1.00
21459;DHT22;10891;49.350;19.386;2022-12-18T14:53:43;-10.60;1.00
21459;DHT22;10891;49.350;19.386;2022-12-18T14:56:16;-10.60;1.00
21459;DHT22;10891;49.350;19.386;2022-12-18T14:58:49;-10.50;1.00
21459;DHT22;10891;49.350;19.386;2022-12-18T15:01:28;-10.50;1.00
21459;DHT22;10891;49.350;19.386;2022-12-18T15:03:57;-10.40;1.00
21459;DHT22;10891;49.350;19.386;2022-12-18T15:06:29;-10.70;1.00
21459;DHT22;10891;49.350;19.386;2022-12-18T15:08:58;-10.60;1.00
21459;DHT22;10891;49.350;19.386;2022-12-18T15:11:32;-10.70;1.00
21459;DHT22;10891;49.350;19.386;2022-12-18T15:14:03;-10.60;1.00
21459;DHT22;10891;49.350;19.386;2022-12-18T15:16:51;-10.70;1.00
21459;DHT22;10891;49.350;19.386;2022-12-18T15:19:20;-10.80;1.00
21459;DHT22;10891;49.350;19.386;2022-12-18T15:21:48;-10.80;1.00
21459;DHT22;10891;49.350;19.386;2022-12-18T15:24:18;-10.80;1.00
21459;DHT22;10891;49.350;19.386;2022-12-18T15:26:48;-10.90;1.00
21459;DHT22;10891;49.350;19.386;2022-12-18T15:29:20;-10.90;1.00
21459;DHT22;10891;49.350;19.386;2022-12-18T15:32:01;-10.90;1.00
21459;DHT22;10891;49.350;19.386;2022-12-18T15:34:28;-10.90;1.00
21459;DHT22;10891;49.350;19.386;2022-12-18T15:36:55;-10.90;1.00
21459;DHT22;10891;49.350;19.386;2022-12-18T15:39:22;-11.10;1.00
21459;DHT22;10891;49.350;19.386;2022-12-18T15:41:51;-11.10;1.00
21459;DHT22;10891;49.350;19.386;2022-12-18T15:44:35;-11.40;1.00
21459;DHT22;10891;49.350;19.386;2022-12-18T15:47:02;-11.60;1.00
21459;DHT22;10891;49.350;19.386;2022-12-18T15:49:29;-11.50;1.00